Time;durP1;ratioP1;P1;durP2;ratioP2;P2;SDS_P1;SDS_P2;PMS_P1;PMS_P2;Temp;Humidity;BMP_temperature;BMP_pressure;BME280_temperature;BME280_humidity;BME280_pressure;Samples;Min_cycle;Max_cycle;Signal;HPM_P1;HPM_P2
2022/05/14 00:00:48;;;;;;;2.17;1.85;;;19.00;45.10;;;;;;5040300;28;20540;-86
2022/05/14 00:03:15;;;;;;;2.20;2.00;;;19.00;45.10;;;;;;5057225;28;20174;-86
2022/05/14 00:05:44;;;;;;;2.50;2.30;;;19.00;45.10;;;;;;5056972;28;20156;-85
2022/05/14 00:08:15;;;;;;;2.33;2.13;;;19.00;45.10;;;;;;5039347;28;20327;-85
2022/05/14 00:13:20;;;;;;;2.58;2.30;;;19.00;45.20;;;;;;5042265;28;20679;-86
2022/05/14 00:15:49;;;;;;;2.40;2.20;;;19.00;45.30;;;;;;5056785;28;20150;-87
2022/05/14 00:18:17;;;;;;;2.97;2.35;;;19.00;45.30;;;;;;5039148;28;20176;-86
2022/05/14 00:20:46;;;;;;;2.63;2.30;;;19.00;45.20;;;;;;5039347;28;20192;-86
2022/05/14 00:23:14;;;;;;;2.20;2.00;;;19.00;45.20;;;;;;5039257;28;20189;-86
2022/05/14 00:25:43;;;;;;;4.72;2.33;;;19.00;45.20;;;;;;5022690;28;20589;-87
2022/05/14 00:28:11;;;;;;;2.47;2.28;;;19.00;45.30;;;;;;5022780;28;20550;-86
2022/05/14 00:30:39;;;;;;;2.80;2.35;;;19.00;45.30;;;;;;5022536;28;20181;-85
2022/05/14 00:33:10;;;;;;;2.70;2.10;;;19.00;45.30;;;;;;5039210;28;20671;-85
2022/05/14 00:35:40;;;;;;;3.67;2.45;;;19.00;45.30;;;;;;5055990;28;20231;-86
2022/05/14 00:38:08;;;;;;;2.60;2.10;;;19.00;45.30;;;;;;5056297;28;20192;-86
2022/05/14 00:40:38;;;;;;;2.53;2.15;;;19.00;45.30;;;;;;5018835;28;20587;-86
2022/05/14 00:43:06;;;;;;;2.25;2.05;;;18.90;45.30;;;;;;5019795;28;20231;-86
2022/05/14 00:45:35;;;;;;;2.33;2.13;;;18.90;45.30;;;;;;5019074;28;20668;-86
2022/05/14 00:48:03;;;;;;;2.47;2.28;;;18.90;45.30;;;;;;5002866;28;20186;-87
2022/05/14 00:50:43;;;;;;;2.30;2.10;;;19.00;45.30;;;;;;5018869;28;20661;-86
2022/05/14 00:53:24;;;;;;;2.72;2.42;;;19.00;45.40;;;;;;5003911;28;20212;-86
2022/05/14 00:55:52;;;;;;;3.13;2.40;;;18.90;45.30;;;;;;5004173;28;20174;-86
2022/05/14 00:58:39;;;;;;;3.08;2.10;;;19.00;45.40;;;;;;5002118;28;20175;-87
2022/05/14 01:01:07;;;;;;;2.42;2.22;;;19.00;45.50;;;;;;5005500;28;20204;-87
2022/05/14 01:03:36;;;;;;;2.55;2.20;;;19.00;45.40;;;;;;5018568;28;20636;-86
2022/05/14 01:06:08;;;;;;;2.60;2.20;;;19.00;45.40;;;;;;5002294;28;20521;-86
2022/05/14 01:08:34;;;;;;;2.53;2.33;;;18.90;45.40;;;;;;5018863;28;20188;-86
2022/05/14 01:11:01;;;;;;;3.40;2.33;;;19.00;45.50;;;;;;5002130;28;20216;-86
2022/05/14 01:13:28;;;;;;;2.30;2.08;;;18.90;45.40;;;;;;5018002;28;20271;-86
2022/05/14 01:16:00;;;;;;;2.40;2.20;;;18.90;45.50;;;;;;5002161;28;20185;-86
2022/05/14 01:18:29;;;;;;;2.55;2.33;;;18.90;45.50;;;;;;5002261;28;20235;-86
2022/05/14 01:21:00;;;;;;;2.10;1.98;;;18.90;45.50;;;;;;5002332;28;20182;-86
2022/05/14 01:26:30;;;;;;;2.40;2.20;;;18.90;45.50;;;;;;5053232;28;20676;-86
2022/05/14 01:28:58;;;;;;;2.67;2.20;;;19.00;45.60;;;;;;5018364;28;20182;-87
2022/05/14 01:31:25;;;;;;;2.10;1.90;;;18.90;45.60;;;;;;5019149;28;20223;-87
2022/05/14 01:33:51;;;;;;;2.25;2.05;;;18.90;45.60;;;;;;5035826;28;20190;-87
2022/05/14 01:36:17;;;;;;;2.92;2.25;;;18.90;45.60;;;;;;5035314;28;20158;-86
2022/05/14 01:38:42;;;;;;;2.40;2.20;;;18.90;45.60;;;;;;5019148;28;20173;-86
2022/05/14 01:41:09;;;;;;;2.20;2.00;;;18.90;45.70;;;;;;5047684;28;20609;-87
2022/05/14 01:43:35;;;;;;;2.42;2.13;;;18.90;45.70;;;;;;5038451;28;20189;-86
2022/05/14 01:46:01;;;;;;;2.72;2.20;;;18.90;45.70;;;;;;5022532;28;20639;-87
2022/05/14 01:48:28;;;;;;;2.40;2.13;;;18.90;45.70;;;;;;5038906;28;20165;-85
2022/05/14 01:50:58;;;;;;;2.50;2.30;;;18.90;45.70;;;;;;5055137;28;20232;-87
2022/05/14 01:53:27;;;;;;;3.20;2.30;;;18.90;45.70;;;;;;5005227;28;20266;-85
2022/05/14 01:55:58;;;;;;;2.30;2.10;;;18.90;45.70;;;;;;5021646;28;20204;-86
2022/05/14 01:58:39;;;;;;;2.22;2.03;;;18.90;45.70;;;;;;4988965;28;20193;-87
2022/05/14 02:01:21;;;;;;;2.22;2.08;;;18.90;45.70;;;;;;5040486;28;20639;-86
2022/05/14 02:03:49;;;;;;;2.75;2.45;;;18.90;45.70;;;;;;5039141;28;20162;-87
2022/05/14 02:06:15;;;;;;;2.35;2.15;;;18.90;45.70;;;;;;5038486;28;20165;-87
2022/05/14 02:08:41;;;;;;;3.58;2.55;;;18.90;45.70;;;;;;5038600;28;20165;-86
2022/05/14 02:11:08;;;;;;;2.58;2.38;;;18.90;45.80;;;;;;5056480;28;20616;-85
2022/05/14 02:13:35;;;;;;;2.03;1.92;;;18.80;45.80;;;;;;5042481;28;20663;-87
2022/05/14 02:16:01;;;;;;;2.42;2.10;;;18.90;45.80;;;;;;5026062;28;20540;-86
2022/05/14 02:18:26;;;;;;;2.40;2.20;;;18.80;45.80;;;;;;5025779;28;20161;-86
2022/05/14 02:20:52;;;;;;;2.92;2.63;;;18.80;45.80;;;;;;5058856;28;20232;-86
2022/05/14 02:23:18;;;;;;;2.83;2.40;;;18.90;45.90;;;;;;5058801;28;20169;-85
2022/05/14 02:25:44;;;;;;;2.40;2.20;;;18.80;45.80;;;;;;5058735;28;20169;-86
2022/05/14 02:28:10;;;;;;;2.20;2.00;;;18.90;45.90;;;;;;5042018;28;20165;-85
2022/05/14 02:30:35;;;;;;;2.80;2.30;;;18.80;45.80;;;;;;5042334;28;20240;-86
2022/05/14 02:33:04;;;;;;;2.40;2.20;;;18.90;45.90;;;;;;5042010;28;20189;-86
2022/05/14 02:35:29;;;;;;;2.15;1.88;;;18.80;45.90;;;;;;5058510;28;20709;-87
2022/05/14 02:37:55;;;;;;;2.58;2.20;;;18.90;46.00;;;;;;5041664;28;20158;-86
2022/05/14 02:40:21;;;;;;;3.03;2.20;;;18.80;45.90;;;;;;5038312;28;20218;-86
2022/05/14 02:42:49;;;;;;;2.53;2.05;;;18.70;45.90;;;;;;5022066;28;20228;-87
2022/05/14 02:45:19;;;;;;;2.38;1.98;;;18.80;45.90;;;;;;5037678;28;20198;-86
2022/05/14 02:47:48;;;;;;;2.25;2.05;;;18.80;45.90;;;;;;5021224;28;20268;-86
2022/05/14 02:50:16;;;;;;;2.40;2.10;;;18.80;45.90;;;;;;5021049;28;20221;-86
2022/05/14 02:52:46;;;;;;;2.38;2.17;;;18.80;46.00;;;;;;4988547;28;20217;-86
2022/05/14 02:55:13;;;;;;;2.50;2.22;;;18.80;45.90;;;;;;5021208;28;20272;-86
2022/05/14 02:57:39;;;;;;;2.42;2.22;;;18.80;46.00;;;;;;5021041;28;20237;-86
2022/05/14 03:00:12;;;;;;;2.45;2.10;;;18.70;45.90;;;;;;5021983;28;20684;-87
2022/05/14 03:02:41;;;;;;;3.30;2.50;;;18.80;46.00;;;;;;5004362;28;20637;-86
2022/05/14 03:05:06;;;;;;;2.60;2.20;;;18.80;46.00;;;;;;5020843;28;20208;-87
2022/05/14 03:07:32;;;;;;;2.30;2.10;;;18.80;46.00;;;;;;5037896;28;20625;-86
2022/05/14 03:09:58;;;;;;;2.20;2.00;;;18.80;46.00;;;;;;5021745;28;20170;-86
2022/05/14 03:12:24;;;;;;;2.47;2.10;;;18.80;46.00;;;;;;5054559;28;20162;-86
2022/05/14 03:14:54;;;;;;;2.20;2.00;;;18.80;46.10;;;;;;5037964;28;20154;-86
2022/05/14 03:17:22;;;;;;;2.65;2.30;;;18.80;46.10;;;;;;5004613;28;20186;-86
2022/05/14 03:19:55;;;;;;;2.20;2.00;;;18.80;46.10;;;;;;4987851;28;20654;-85
2022/05/14 03:22:23;;;;;;;2.25;2.03;;;18.80;46.10;;;;;;5004072;28;20239;-86
2022/05/14 03:24:52;;;;;;;2.25;2.05;;;18.80;46.20;;;;;;5020554;28;20186;-86
2022/05/14 03:27:19;;;;;;;2.42;2.20;;;18.80;46.20;;;;;;5020737;28;20177;-86
2022/05/14 03:29:47;;;;;;;2.72;2.40;;;18.80;46.20;;;;;;5004439;28;20178;-86
2022/05/14 03:32:17;;;;;;;2.30;2.10;;;18.80;46.90;;;;;;4987832;28;20268;-86
2022/05/14 03:34:46;;;;;;;2.17;2.00;;;18.80;46.20;;;;;;5004012;28;20214;-86
2022/05/14 03:37:14;;;;;;;3.40;2.10;;;18.80;46.20;;;;;;5003951;28;20289;-85
2022/05/14 03:39:40;;;;;;;2.60;2.40;;;18.80;46.20;;;;;;4987535;28;20262;-86
2022/05/14 03:42:10;;;;;;;2.10;1.90;;;18.80;46.20;;;;;;5021043;28;20186;-86
2022/05/14 03:44:38;;;;;;;2.33;2.08;;;18.80;46.20;;;;;;4970093;28;20340;-86
2022/05/14 03:47:03;;;;;;;2.30;2.10;;;18.80;46.20;;;;;;5020811;28;20182;-86
2022/05/14 03:49:29;;;;;;;2.53;2.20;;;18.80;46.30;;;;;;5037210;28;20155;-86
2022/05/14 03:51:56;;;;;;;2.15;1.95;;;18.80;46.20;;;;;;5020699;28;20628;-86
2022/05/14 03:54:21;;;;;;;2.58;2.30;;;18.80;46.20;;;;;;5055166;28;20671;-86
2022/05/14 03:56:47;;;;;;;2.10;2.00;;;18.80;46.30;;;;;;5020870;28;20170;-86
2022/05/14 03:59:14;;;;;;;2.80;2.50;;;18.80;46.20;;;;;;5020639;28;20162;-86
2022/05/14 04:01:39;;;;;;;2.17;1.98;;;18.80;46.30;;;;;;5003545;28;20178;-86
2022/05/14 04:04:06;;;;;;;2.35;2.15;;;18.80;46.30;;;;;;5020613;28;20519;-86
2022/05/14 04:06:34;;;;;;;2.50;2.30;;;18.80;46.30;;;;;;4987569;28;20236;-86
2022/05/14 04:09:02;;;;;;;2.35;2.03;;;18.80;46.30;;;;;;4987668;28;20186;-86
2022/05/14 04:11:28;;;;;;;2.83;2.20;;;18.80;46.30;;;;;;5036927;28;20224;-85
2022/05/14 04:13:58;;;;;;;2.70;2.17;;;18.80;46.30;;;;;;5020219;28;20190;-87
2022/05/14 04:16:24;;;;;;;3.20;2.30;;;18.80;46.30;;;;;;5003107;28;20241;-87
2022/05/14 04:18:49;;;;;;;2.45;2.25;;;18.80;46.40;;;;;;5054482;28;20159;-86
2022/05/14 04:21:15;;;;;;;2.60;2.40;;;18.80;46.40;;;;;;5003922;28;20205;-86
2022/05/14 04:23:42;;;;;;;3.13;2.25;;;18.80;46.40;;;;;;5020324;28;20185;-86
2022/05/14 04:26:07;;;;;;;2.28;1.95;;;18.80;46.40;;;;;;5004176;28;20177;-86
2022/05/14 04:28:33;;;;;;;2.65;2.17;;;18.80;46.40;;;;;;5036398;28;20680;-86
2022/05/14 04:30:59;;;;;;;2.30;2.10;;;18.80;46.40;;;;;;5036409;28;20187;-86
2022/05/14 04:33:25;;;;;;;2.30;2.10;;;18.70;46.40;;;;;;5019537;28;20320;-87
2022/05/14 04:35:52;;;;;;;2.67;2.17;;;18.70;46.50;;;;;;5020119;28;20241;-86
2022/05/14 04:38:21;;;;;;;2.60;2.28;;;18.70;46.40;;;;;;5036258;28;20667;-86
2022/05/14 04:40:50;;;;;;;2.30;2.10;;;18.70;46.40;;;;;;4999164;28;20215;-86
2022/05/14 04:43:20;;;;;;;2.30;2.10;;;18.70;46.50;;;;;;4999387;28;20187;-86
2022/05/14 04:45:48;;;;;;;2.40;2.20;;;18.80;46.60;;;;;;5032288;28;20197;-87
2022/05/14 04:48:15;;;;;;;2.85;2.10;;;18.70;46.50;;;;;;5032031;28;20195;-86
2022/05/14 04:50:41;;;;;;;2.38;2.00;;;18.80;46.50;;;;;;5036241;28;20262;-86
2022/05/14 04:53:07;;;;;;;2.00;1.80;;;18.70;46.50;;;;;;5035877;28;20226;-86
2022/05/14 04:55:33;;;;;;;2.20;2.00;;;18.70;46.50;;;;;;5019757;28;20169;-86
2022/05/14 04:57:59;;;;;;;2.33;2.13;;;18.70;46.50;;;;;;5035971;28;20150;-86
2022/05/14 05:00:25;;;;;;;2.40;2.10;;;18.80;46.60;;;;;;5019231;28;20544;-85
2022/05/14 05:05:38;;;;;;;2.38;2.10;;;18.70;46.60;;;;;;5008973;28;20186;-86
2022/05/14 05:08:06;;;;;;;2.10;1.90;;;18.70;46.60;;;;;;5002468;28;20178;-85
2022/05/14 05:10:35;;;;;;;2.83;2.22;;;18.70;46.60;;;;;;5018538;28;20189;-86
2022/05/14 05:13:03;;;;;;;2.40;1.90;;;18.70;46.60;;;;;;5001889;28;20300;-87
2022/05/14 05:15:31;;;;;;;3.28;2.17;;;18.70;46.60;;;;;;5002237;28;20208;-86
2022/05/14 05:18:01;;;;;;;2.90;2.45;;;18.70;46.60;;;;;;5002321;28;20586;-86
2022/05/14 05:20:29;;;;;;;2.42;2.22;;;18.70;46.60;;;;;;5002187;28;20578;-86
2022/05/14 05:22:55;;;;;;;2.38;2.15;;;18.70;46.60;;;;;;5019778;28;20165;-86
2022/05/14 05:25:20;;;;;;;2.35;2.15;;;18.70;46.70;;;;;;5019087;28;20636;-85
2022/05/14 05:27:46;;;;;;;2.38;2.17;;;18.70;46.70;;;;;;5044969;28;20169;-86
2022/05/14 05:30:12;;;;;;;2.42;2.15;;;18.70;46.70;;;;;;5053411;28;20190;-86
2022/05/14 05:32:38;;;;;;;3.22;1.92;;;18.70;46.70;;;;;;5019719;28;20517;-86
2022/05/14 05:35:04;;;;;;;2.03;1.88;;;18.70;46.70;;;;;;5035349;28;20159;-86
2022/05/14 05:37:29;;;;;;;2.40;2.20;;;18.70;46.70;;;;;;5035525;28;20161;-86
2022/05/14 05:39:55;;;;;;;2.20;2.00;;;18.80;46.80;;;;;;5035127;28;20566;-87
2022/05/14 05:42:22;;;;;;;2.53;2.10;;;18.70;46.70;;;;;;5018916;28;20584;-86
2022/05/14 05:44:49;;;;;;;2.63;2.22;;;18.70;46.80;;;;;;4985422;28;20204;-87
2022/05/14 05:47:19;;;;;;;2.55;2.15;;;18.70;46.80;;;;;;5001754;28;20185;-86
2022/05/14 05:49:47;;;;;;;2.13;1.90;;;18.70;46.80;;;;;;5001962;28;20178;-87
2022/05/14 05:52:14;;;;;;;2.10;1.90;;;18.70;46.80;;;;;;4985908;28;20247;-86
2022/05/14 05:57:36;;;;;;;2.40;2.20;;;18.70;46.90;;;;;;5010246;28;20208;-86
2022/05/14 06:00:05;;;;;;;2.38;2.00;;;18.70;46.80;;;;;;5018659;28;20165;-86
2022/05/14 06:02:31;;;;;;;2.33;2.13;;;18.70;46.80;;;;;;5002364;28;20190;-86
2022/05/14 06:04:57;;;;;;;2.10;1.90;;;18.70;46.80;;;;;;5053100;28;20545;-85
2022/05/14 06:07:23;;;;;;;2.22;2.00;;;18.70;46.80;;;;;;5052906;28;20184;-85
2022/05/14 06:09:49;;;;;;;1.95;1.80;;;18.70;46.80;;;;;;5052777;28;20193;-85
2022/05/14 06:12:15;;;;;;;2.08;1.90;;;18.80;46.80;;;;;;5018494;28;20567;-85
2022/05/14 06:14:41;;;;;;;2.90;2.03;;;18.80;46.80;;;;;;5034953;28;20182;-85
2022/05/14 06:17:07;;;;;;;2.13;1.92;;;18.80;46.90;;;;;;5018698;28;20170;-85
2022/05/14 06:19:33;;;;;;;2.42;1.90;;;18.80;46.90;;;;;;5018779;28;20193;-85
2022/05/14 06:21:58;;;;;;;2.13;1.92;;;18.80;46.90;;;;;;5018397;28;20637;-86
2022/05/14 06:24:24;;;;;;;2.30;2.10;;;18.80;46.90;;;;;;5001897;28;20174;-86
2022/05/14 06:26:50;;;;;;;2.10;1.90;;;18.80;46.90;;;;;;5035103;28;20158;-85
2022/05/14 06:29:15;;;;;;;2.92;2.00;;;18.80;46.90;;;;;;5018561;28;20182;-86
2022/05/14 06:31:41;;;;;;;2.00;1.80;;;18.80;46.90;;;;;;5018696;28;20263;-85
2022/05/14 06:34:07;;;;;;;2.42;2.22;;;18.70;46.90;;;;;;5018276;28;20551;-86
2022/05/14 06:36:33;;;;;;;2.10;1.90;;;18.80;46.90;;;;;;5018411;28;20186;-86
2022/05/14 06:38:59;;;;;;;2.22;2.03;;;18.70;46.90;;;;;;5018305;28;20165;-86
2022/05/14 06:41:25;;;;;;;2.47;2.08;;;18.80;46.90;;;;;;5032165;28;20232;-85
2022/05/14 06:43:51;;;;;;;2.10;1.90;;;18.80;46.90;;;;;;5054813;28;20166;-85
2022/05/14 06:46:18;;;;;;;2.25;2.05;;;18.70;46.90;;;;;;5054775;28;20153;-85
2022/05/14 06:48:44;;;;;;;3.13;2.40;;;18.80;47.00;;;;;;5054589;28;20613;-86
2022/05/14 06:51:14;;;;;;;1.95;1.80;;;18.70;46.90;;;;;;5038158;28;20173;-86
2022/05/14 06:53:40;;;;;;;2.05;1.90;;;18.80;46.90;;;;;;5072371;28;20174;-85
2022/05/14 06:56:05;;;;;;;2.13;1.90;;;18.80;46.90;;;;;;5037994;28;20188;-85
2022/05/14 06:58:33;;;;;;;2.30;2.10;;;18.70;46.90;;;;;;5041408;28;20161;-86
2022/05/14 07:00:59;;;;;;;2.40;2.20;;;18.80;46.90;;;;;;5058148;28;20157;-85
2022/05/14 07:08:52;;;;;;;2.33;2.13;;;18.80;46.90;;;;;;5060194;28;20157;-85
2022/05/14 07:11:18;;;;;;;2.40;2.20;;;18.80;46.90;;;;;;5057891;28;20150;-87
2022/05/14 07:13:44;;;;;;;2.35;2.15;;;18.80;46.90;;;;;;5041111;28;20220;-85
2022/05/14 07:16:13;;;;;;;2.30;2.10;;;18.80;47.00;;;;;;5025089;28;20620;-87
2022/05/14 07:18:39;;;;;;;2.25;2.05;;;18.80;47.00;;;;;;5007605;28;20177;-86
2022/05/14 07:21:04;;;;;;;2.10;1.90;;;18.80;47.10;;;;;;5058217;28;20211;-86
2022/05/14 07:23:30;;;;;;;2.20;2.00;;;18.80;47.20;;;;;;5058191;28;20153;-87
2022/05/14 07:26:03;;;;;;;2.10;1.90;;;18.80;47.20;;;;;;5041339;28;20646;-89
2022/05/14 07:28:28;;;;;;;2.22;1.80;;;18.90;47.20;;;;;;5042611;28;20180;-87
2022/05/14 07:30:54;;;;;;;1.90;1.80;;;18.80;47.20;;;;;;5058395;28;20161;-88
2022/05/14 07:33:19;;;;;;;2.17;1.98;;;18.90;47.70;;;;;;5041741;28;20177;-87
2022/05/14 07:35:45;;;;;;;2.03;1.80;;;18.90;47.40;;;;;;5059372;28;20218;-88
2022/05/14 07:38:11;;;;;;;2.00;1.80;;;19.00;47.50;;;;;;5059522;28;20196;-88
2022/05/14 07:40:37;;;;;;;2.00;1.80;;;19.00;47.40;;;;;;5058845;28;20209;-88
2022/05/14 07:43:16;;;;;;;2.05;1.85;;;19.10;47.50;;;;;;5025972;28;20630;-88
2022/05/14 07:45:44;;;;;;;2.20;2.00;;;19.10;47.30;;;;;;5010405;28;20189;-87
2022/05/14 07:48:13;;;;;;;2.03;1.83;;;19.00;47.30;;;;;;4992190;28;20580;-88
2022/05/14 07:50:39;;;;;;;2.20;2.00;;;19.00;47.50;;;;;;5077315;28;20161;-87
2022/05/14 07:53:06;;;;;;;1.55;1.45;;;19.10;47.40;;;;;;5062390;28;20732;-88
2022/05/14 07:55:33;;;;;;;2.50;1.90;;;19.10;47.60;;;;;;5062568;28;20173;-87
2022/05/14 07:57:59;;;;;;;1.90;1.75;;;19.10;47.40;;;;;;5061200;28;20161;-86
2022/05/14 08:00:25;;;;;;;1.70;1.60;;;19.10;47.70;;;;;;5060023;28;20153;-84
2022/05/14 08:02:51;;;;;;;1.85;1.75;;;19.10;48.00;;;;;;5061061;28;20156;-85
2022/05/14 08:05:20;;;;;;;2.65;2.05;;;19.20;47.90;;;;;;5077090;28;20180;-84
2022/05/14 08:07:50;;;;;;;2.22;1.60;;;19.20;48.20;;;;;;5076783;28;20192;-85
2022/05/14 08:10:16;;;;;;;4.32;1.90;;;19.20;48.20;;;;;;5035665;28;20625;-86
2022/05/14 08:12:58;;;;;;;1.95;1.63;;;19.30;48.90;;;;;;5051039;28;20225;-86
2022/05/14 08:15:27;;;;;;;1.92;1.60;;;19.20;48.10;;;;;;4980122;28;20206;-85
2022/05/14 08:17:53;;;;;;;1.60;1.50;;;19.30;48.10;;;;;;4996624;28;20164;-85
2022/05/14 08:20:44;;;;;;;1.85;1.75;;;19.30;48.40;;;;;;4980183;28;20237;-84
2022/05/14 08:26:08;;;;;;;2.05;1.90;;;19.30;48.20;;;;;;4998596;28;20202;-86
2022/05/14 08:28:35;;;;;;;1.70;1.60;;;19.30;48.20;;;;;;4980771;28;20198;-84
2022/05/14 08:31:00;;;;;;;1.70;1.60;;;19.30;48.50;;;;;;4996318;28;20274;-84
2022/05/14 08:33:27;;;;;;;1.70;1.60;;;19.30;48.40;;;;;;4995950;28;20789;-85
2022/05/14 08:35:53;;;;;;;1.65;1.55;;;19.30;48.30;;;;;;4995891;28;20185;-86
2022/05/14 08:38:25;;;;;;;2.00;1.80;;;19.30;48.50;;;;;;4996293;28;20623;-86
2022/05/14 08:40:56;;;;;;;1.77;1.67;;;19.30;48.50;;;;;;5002736;28;20221;-86
2022/05/14 08:43:40;;;;;;;1.80;1.70;;;19.30;48.50;;;;;;5015391;28;20171;-85
2022/05/14 08:46:08;;;;;;;1.77;1.67;;;19.40;48.50;;;;;;5032419;28;20260;-86
2022/05/14 08:48:36;;;;;;;1.77;1.60;;;19.30;48.50;;;;;;5032165;28;20159;-86
2022/05/14 08:51:04;;;;;;;3.03;1.90;;;19.40;48.70;;;;;;4999837;28;20241;-87
2022/05/14 08:53:30;;;;;;;1.73;1.63;;;19.30;48.60;;;;;;5016547;28;20288;-87
2022/05/14 08:56:10;;;;;;;2.10;1.77;;;19.30;48.80;;;;;;4999601;28;20237;-88
2022/05/14 08:59:11;;;;;;;1.88;1.58;;;19.30;48.90;;;;;;5032433;28;20222;-87
2022/05/14 09:01:38;;;;;;;1.98;1.73;;;19.40;48.80;;;;;;5016747;28;20194;-87
2022/05/14 09:04:17;;;;;;;1.77;1.67;;;19.30;49.00;;;;;;5015309;28;20211;-87
2022/05/14 09:06:42;;;;;;;2.53;1.50;;;19.30;48.90;;;;;;5031907;28;20186;-87
2022/05/14 09:09:09;;;;;;;2.80;1.95;;;19.30;49.10;;;;;;5015278;28;20221;-86
2022/05/14 09:11:51;;;;;;;2.10;1.85;;;19.40;49.30;;;;;;5015230;28;20226;-86
2022/05/14 09:14:31;;;;;;;1.77;1.58;;;19.40;49.30;;;;;;5032277;28;20588;-87
2022/05/14 09:17:11;;;;;;;1.70;1.60;;;19.30;49.60;;;;;;5012710;28;20269;-90
2022/05/14 09:19:43;;;;;;;1.77;1.55;;;19.40;49.70;;;;;;5006289;28;20166;-89
2022/05/14 09:22:09;;;;;;;3.13;1.70;;;19.30;49.60;;;;;;5002975;28;20333;-89
2022/05/14 09:24:39;;;;;;;2.03;1.83;;;19.30;49.70;;;;;;5036444;28;20268;-89
2022/05/14 09:27:14;;;;;;;1.60;1.50;;;19.30;49.70;;;;;;5021913;28;20167;-88
2022/05/14 09:29:51;;;;;;;1.88;1.70;;;19.30;49.70;;;;;;5037891;28;20162;-91
2022/05/14 09:32:30;;;;;;;1.50;1.40;;;19.40;49.70;;;;;;4993653;28;20290;-86
2022/05/14 09:35:06;;;;;;;1.98;1.77;;;19.40;50.00;;;;;;4973981;28;20203;-87
2022/05/14 09:37:32;;;;;;;1.70;1.60;;;19.40;50.20;;;;;;4975383;28;20161;-87
2022/05/14 09:39:59;;;;;;;1.90;1.60;;;19.50;49.80;;;;;;4978772;28;20182;-87
2022/05/14 09:42:30;;;;;;;1.92;1.50;;;19.50;49.70;;;;;;4978479;28;20223;-86
2022/05/14 09:44:58;;;;;;;1.50;1.40;;;19.50;49.70;;;;;;4980854;28;20583;-87
2022/05/14 09:47:30;;;;;;;2.38;1.60;;;19.50;49.70;;;;;;4997187;28;20187;-88
2022/05/14 09:49:59;;;;;;;1.67;1.42;;;19.50;49.70;;;;;;4980990;28;20164;-86
2022/05/14 09:52:27;;;;;;;1.75;1.65;;;19.50;49.70;;;;;;4964940;28;20449;-86
2022/05/14 09:54:54;;;;;;;1.35;1.25;;;19.60;49.70;;;;;;4979333;28;20207;-85
2022/05/14 09:57:33;;;;;;;2.38;1.88;;;19.50;49.60;;;;;;4976803;28;20183;-87
2022/05/14 10:00:07;;;;;;;1.77;1.67;;;19.60;49.70;;;;;;5012469;28;20163;-87
2022/05/14 10:02:56;;;;;;;1.65;1.55;;;19.60;49.50;;;;;;4959628;28;20656;-86
2022/05/14 10:06:03;;;;;;;1.73;1.45;;;19.60;49.50;;;;;;4988210;28;20185;-86
2022/05/14 10:09:03;;;;;;;1.65;1.55;;;19.60;49.50;;;;;;5007295;28;20192;-87
2022/05/14 10:11:36;;;;;;;2.80;1.60;;;19.60;49.40;;;;;;5022143;28;20720;-88
2022/05/14 10:14:23;;;;;;;2.13;1.75;;;19.70;49.60;;;;;;4995630;28;20213;-87
2022/05/14 10:17:06;;;;;;;1.92;1.60;;;19.50;49.60;;;;;;5027036;28;20189;-88
2022/05/14 10:19:54;;;;;;;1.45;1.33;;;19.50;49.70;;;;;;5005197;28;20178;-88
2022/05/14 10:28:21;;;;;;;2.85;1.48;;;19.50;49.70;;;;;;5027437;28;20259;-88
2022/05/14 10:31:14;;;;;;;1.92;1.67;;;19.60;49.80;;;;;;5019651;28;20166;-88
2022/05/14 10:33:45;;;;;;;1.67;1.58;;;19.50;49.80;;;;;;5011452;28;20205;-88
2022/05/14 10:36:23;;;;;;;3.05;1.48;;;19.50;49.80;;;;;;5008017;28;20173;-88
2022/05/14 10:38:56;;;;;;;2.33;1.48;;;19.50;49.80;;;;;;5011463;28;20260;-88
2022/05/14 10:41:38;;;;;;;1.60;1.40;;;19.50;49.90;;;;;;5021264;28;20282;-88
2022/05/14 10:44:10;;;;;;;1.52;1.42;;;19.50;49.90;;;;;;5019170;28;20159;-87
2022/05/14 10:46:36;;;;;;;2.38;1.52;;;19.50;50.60;;;;;;5027132;28;20177;-87
2022/05/14 10:49:34;;;;;;;1.40;1.30;;;19.50;49.90;;;;;;5058327;28;20623;-87
2022/05/14 10:52:00;;;;;;;2.05;1.75;;;19.50;49.80;;;;;;5060589;28;20178;-87
2022/05/14 10:54:31;;;;;;;1.80;1.50;;;19.50;49.80;;;;;;5058067;28;20242;-88
2022/05/14 10:57:02;;;;;;;1.70;1.60;;;19.40;49.80;;;;;;5027783;28;20185;-89
2022/05/14 10:59:36;;;;;;;3.22;1.55;;;19.50;50.00;;;;;;5061677;28;20165;-88
2022/05/14 11:02:14;;;;;;;1.85;1.60;;;19.50;49.90;;;;;;5063670;28;20173;-88
2022/05/14 11:04:47;;;;;;;1.90;1.58;;;19.50;50.00;;;;;;5023769;28;20190;-88
2022/05/14 11:07:29;;;;;;;1.77;1.60;;;19.50;49.90;;;;;;4999012;28;20191;-88
2022/05/14 11:10:17;;;;;;;1.70;1.60;;;19.50;49.80;;;;;;4999797;28;20220;-88
2022/05/14 11:12:53;;;;;;;1.92;1.48;;;19.50;50.00;;;;;;4993533;28;20214;-89
2022/05/14 11:15:39;;;;;;;3.45;1.70;;;19.50;50.10;;;;;;4984719;28;20176;-89
2022/05/14 11:18:17;;;;;;;2.05;1.85;;;19.50;50.10;;;;;;4972634;28;20568;-89
2022/05/14 11:20:58;;;;;;;1.48;1.38;;;19.50;50.20;;;;;;5007180;28;20202;-88
2022/05/14 11:23:32;;;;;;;2.28;1.58;;;19.50;50.20;;;;;;5021805;28;20162;-88
2022/05/14 11:26:08;;;;;;;2.38;1.70;;;19.50;50.20;;;;;;5001332;28;20233;-89
2022/05/14 11:28:38;;;;;;;2.97;1.70;;;19.40;50.20;;;;;;4989155;28;20253;-88
2022/05/14 11:31:16;;;;;;;3.17;1.35;;;19.40;50.20;;;;;;5004076;28;20187;-89
2022/05/14 11:33:48;;;;;;;1.63;1.52;;;19.40;50.30;;;;;;5004238;28;20222;-90
2022/05/14 11:36:23;;;;;;;1.60;1.50;;;19.40;50.20;;;;;;4988629;28;20174;-88
2022/05/14 11:39:22;;;;;;;1.65;1.52;;;19.30;50.30;;;;;;5017625;28;20655;-89
2022/05/14 11:42:25;;;;;;;1.52;1.35;;;19.30;50.40;;;;;;5065802;28;20224;-88
2022/05/14 11:44:58;;;;;;;1.60;1.50;;;19.30;50.40;;;;;;5065656;28;20253;-88
2022/05/14 11:47:57;;;;;;;3.15;1.70;;;19.20;50.60;;;;;;5065966;28;20553;-88
2022/05/14 11:50:33;;;;;;;1.58;1.42;;;19.20;50.70;;;;;;5055140;28;20215;-87
2022/05/14 11:53:17;;;;;;;1.90;1.70;;;19.20;50.70;;;;;;5066615;28;20676;-87
2022/05/14 11:55:52;;;;;;;2.05;1.40;;;19.20;50.60;;;;;;5053793;28;20181;-88
2022/05/14 11:58:52;;;;;;;2.65;1.30;;;19.20;50.60;;;;;;5034423;28;20176;-87
2022/05/14 12:01:24;;;;;;;1.77;1.65;;;19.20;50.70;;;;;;5049393;28;20290;-86
2022/05/14 12:04:00;;;;;;;2.25;1.50;;;19.30;50.50;;;;;;5053241;28;20184;-88
2022/05/14 12:06:58;;;;;;;1.85;1.48;;;19.30;50.60;;;;;;5034832;28;20180;-87
2022/05/14 12:09:43;;;;;;;2.22;1.58;;;19.30;50.50;;;;;;5010083;28;20542;-88
2022/05/14 12:12:15;;;;;;;1.30;1.20;;;19.30;50.70;;;;;;5068884;28;20210;-87
2022/05/14 12:14:46;;;;;;;1.73;1.38;;;19.30;50.60;;;;;;5066750;28;20264;-87
2022/05/14 12:17:16;;;;;;;1.73;1.40;;;19.30;50.50;;;;;;5030535;28;20177;-85
2022/05/14 12:19:42;;;;;;;1.70;1.60;;;19.40;50.60;;;;;;5046191;28;20158;-87
2022/05/14 12:22:19;;;;;;;1.60;1.50;;;19.30;50.50;;;;;;5024377;28;20181;-87
2022/05/14 12:25:05;;;;;;;1.52;1.40;;;19.30;50.60;;;;;;5040972;28;20207;-86
2022/05/14 12:27:31;;;;;;;1.80;1.70;;;19.30;50.50;;;;;;5027208;28;20172;-86
2022/05/14 12:30:02;;;;;;;1.40;1.30;;;19.30;50.60;;;;;;5027367;28;20172;-86
2022/05/14 12:35:24;;;;;;;1.83;1.63;;;19.30;50.50;;;;;;5049498;28;20244;-86
2022/05/14 12:37:55;;;;;;;4.10;1.30;;;19.40;50.50;;;;;;5030751;28;20224;-87
2022/05/14 12:40:27;;;;;;;1.63;1.40;;;19.30;50.50;;;;;;5044777;28;20206;-87
2022/05/14 12:42:55;;;;;;;2.50;1.40;;;19.40;50.60;;;;;;5060616;28;20149;-87
2022/05/14 12:45:36;;;;;;;2.58;1.60;;;19.40;50.60;;;;;;5061836;28;20228;-87
2022/05/14 12:48:02;;;;;;;1.40;1.30;;;19.30;50.70;;;;;;5044725;28;20165;-86
2022/05/14 12:50:32;;;;;;;1.77;1.45;;;19.40;51.10;;;;;;5028413;28;20176;-86
2022/05/14 12:53:00;;;;;;;2.75;1.50;;;19.30;51.10;;;;;;5030845;28;20643;-86
2022/05/14 12:55:31;;;;;;;1.67;1.45;;;19.30;51.30;;;;;;5043227;28;20169;-86
2022/05/14 12:58:01;;;;;;;2.08;1.42;;;19.30;51.20;;;;;;5045037;28;20537;-86
2022/05/14 13:00:29;;;;;;;2.03;1.20;;;19.40;51.20;;;;;;5028524;28;20187;-86
2022/05/14 13:03:09;;;;;;;1.83;1.30;;;19.40;51.30;;;;;;5028086;28;20165;-87
2022/05/14 13:05:46;;;;;;;1.67;1.30;;;19.40;51.40;;;;;;5044309;28;20192;-86
2022/05/14 13:08:17;;;;;;;1.83;1.20;;;19.40;51.50;;;;;;5027739;28;20165;-86
2022/05/14 13:10:48;;;;;;;1.63;1.23;;;19.40;51.40;;;;;;5043619;28;20169;-87
2022/05/14 13:13:14;;;;;;;2.60;1.38;;;19.50;51.40;;;;;;5043700;28;20246;-85
2022/05/14 13:15:47;;;;;;;1.65;1.55;;;19.50;51.40;;;;;;5058394;28;20219;-86
2022/05/14 13:18:19;;;;;;;2.30;1.40;;;19.40;51.40;;;;;;5042432;28;20162;-86
2022/05/14 13:20:45;;;;;;;8.27;1.92;;;19.40;51.30;;;;;;5026974;28;20524;-87
2022/05/14 13:23:16;;;;;;;8.98;1.98;;;19.50;51.30;;;;;;5025694;28;20177;-87
2022/05/14 13:25:43;;;;;;;5.28;1.45;;;19.50;51.20;;;;;;5042209;28;20616;-87
2022/05/14 13:28:15;;;;;;;6.20;1.80;;;19.50;51.10;;;;;;5025077;28;20176;-87
2022/05/14 13:30:44;;;;;;;2.67;1.65;;;19.50;51.00;;;;;;5041829;28;20165;-87
2022/05/14 13:33:26;;;;;;;2.45;1.98;;;19.50;50.90;;;;;;5041776;28;20656;-87